Bookmark and Share
Track history (hours):
 

Coral Leaf

Last reported at 2014-Apr-20 02:33 UTC. Time now 2014-Apr-20 03:17 UTC.
Position N 54°42' W 001°02'.

Length 108 m; draft 4.8 m.

Type: Ship (hazmat cat D). MMSI: 244036000.

NotesDate/timePositionNaut miles runAvg speedWind from/ knotsBaromVisibWave heightAir tempDewpointWater temp
2014-Apr-20 02:33N 54°42' W 001°02'0 0.0
2014-Apr-20 01:33N 54°42' W 001°02'0 0.0
2014-Apr-20 00:33N 54°42' W 001°02'0 0.0
2014-Apr-19 23:33N 54°42' W 001°02'0 0.0
2014-Apr-19 22:33N 54°42' W 001°02'0 0.0
2014-Apr-19 21:33N 54°42' W 001°02'0 0.0
2014-Apr-19 20:33N 54°42' W 001°02'0 0.1
2014-Apr-19 19:33N 54°42' W 001°02'0 0.0
2014-Apr-19 18:33N 54°42' W 001°02'0 0.1
2014-Apr-19 17:33N 54°42' W 001°02'0 0.0
2014-Apr-19 16:33N 54°42' W 001°02'0 0.0
2014-Apr-19 15:33N 54°42' W 001°02'0 0.0
2014-Apr-19 14:33N 54°42' W 001°02'0 0.0
2014-Apr-19 13:33N 54°42' W 001°02'0 0.0
2014-Apr-19 12:33N 54°42' W 001°02'0 0.0
2014-Apr-19 11:33N 54°42' W 001°02'0 0.0
2014-Apr-19 10:33N 54°42' W 001°02'2 1.6
2014-Apr-19 09:33N 54°41' W 000°60'1111.0
2014-Apr-19 08:33N 54°40' W 000°41'1110.6
2014-Apr-19 07:33N 54°39' W 000°23'1010.4
2014-Apr-19 06:33N 54°39' W 000°05'1010.4
2014-Apr-19 05:34N 54°38' E 000°13'1110.7
2014-Apr-19 04:34N 54°37' E 000°31'1111.0
2014-Apr-19 03:31N 54°36' E 000°51'1111.4
2014-Apr-19 02:32N 54°36' E 001°11'1111.5
2014-Apr-19 01:32N 54°35' E 001°30'1111.5
2014-Apr-19 00:33N 54°34' E 001°50'1511.1
2014-Apr-18 23:10N 54°33' E 002°16'161 9.1
2014-Apr-18 05:32N 54°12' E 006°50'9 8.9
2014-Apr-18 04:33N 54°12' E 007°05'9 8.9
2014-Apr-18 03:32N 54°12' E 007°20'9 9.6
2014-Apr-18 02:33N 54°11' E 007°36'1010.5
2014-Apr-18 01:34N 54°06' E 007°51'1010.1
2014-Apr-18 00:33N 54°01' E 008°06'1010.0
2014-Apr-17 23:33N 53°60' E 008°23'1111.5
2014-Apr-17 22:33N 53°55' E 008°41'1312.6
2014-Apr-17 21:34N 53°52' E 009°02'1212.2
2014-Apr-17 20:34N 53°49' E 009°22'10 9.6
2014-Apr-17 19:31N 53°40' E 009°30'0 0.0
2014-Apr-17 18:31N 53°40' E 009°30'0 0.0
2014-Apr-17 17:33N 53°40' E 009°30'2 1.6
2014-Apr-17 16:33N 53°39' E 009°31'0 0.0
2014-Apr-16 16:10N 53°39' E 009°31'1 1.1
2014-Apr-16 15:33N 53°40' E 009°31'2 1.6
2014-Apr-16 14:34N 53°41' E 009°30'6 6.1
2014-Apr-16 13:34N 53°46' E 009°24'8 8.2
2014-Apr-16 12:34N 53°52' E 009°15'9 9.0
2014-Apr-16 11:34N 53°51' E 008°60'1010.2
2014-Apr-16 10:34N 53°53' E 008°43'1414.0
2014-Apr-16 09:33N 53°59' E 008°22'9 8.8
2014-Apr-16 08:33N 54°03' E 008°08'1 0.6
2014-Apr-16 07:33N 54°03' E 008°09'0 0.1
2014-Apr-16 06:33N 54°03' E 008°09'0 0.0
2014-Apr-16 05:29N 54°03' E 008°09'0 0.0
2014-Apr-16 04:33N 54°03' E 008°09'3 2.8
2014-Apr-16 03:33N 54°03' E 008°04'1212.3
2014-Apr-16 02:33N 54°06' E 007°44'1212.0
2014-Apr-16 01:33N 54°09' E 007°24'1312.7
2014-Apr-16 00:33N 54°08' E 007°02'1312.9
2014-Apr-15 23:33N 54°08' E 006°40'4013.3
2014-Apr-15 20:33N 54°04' E 005°32'1313.5
2014-Apr-15 19:33N 54°02' E 005°09'17212.2
2014-Apr-15 05:31N 54°38' E 000°22'2814.6
2014-Apr-15 03:34N 54°39' W 000°28'1515.3
2014-Apr-15 02:33N 54°39' W 000°54'10 9.6
2014-Apr-15 01:33N 54°36' W 001°10'1 0.6
2014-Apr-15 00:33N 54°36' W 001°11'0 0.0
2014-Apr-14 23:33N 54°36' W 001°11'0 0.0
2014-Apr-14 22:33N 54°36' W 001°11'0 0.0
2014-Apr-14 21:33N 54°36' W 001°11'0 0.0
2014-Apr-14 20:33N 54°36' W 001°11'0 0.0
2014-Apr-14 19:30N 54°36' W 001°11'0 0.0
2014-Apr-14 18:30N 54°36' W 001°11'0 0.0
2014-Apr-14 17:33N 54°36' W 001°11'0 0.0
2014-Apr-14 16:33N 54°36' W 001°11'0 0.0
2014-Apr-14 15:33N 54°36' W 001°11'0 0.0
2014-Apr-14 14:33N 54°36' W 001°11'0 0.0
2014-Apr-14 13:30N 54°36' W 001°11'0 0.0
2014-Apr-14 11:33N 54°36' W 001°11'0 0.0
2014-Apr-14 10:33N 54°36' W 001°11'0 0.0
2014-Apr-14 09:33N 54°36' W 001°11'0 0.0
2014-Apr-14 08:30N 54°36' W 001°11'0 0.1
2014-Apr-14 07:33N 54°36' W 001°11'7 6.7
2014-Apr-14 06:33N 54°41' W 001°02'1110.7
2014-Apr-14 05:34N 54°36' W 000°45'10214.0
2014-Apr-13 22:17N 53°21' E 001°11'1115.4
2014-Apr-13 21:34N 53°11' E 001°20'1514.5
2014-Apr-13 20:34N 52°59' E 001°33'1313.1
2014-Apr-13 19:34N 52°49' E 001°48'1312.7
2014-Apr-13 18:33N 52°39' E 001°60'1413.6
2014-Apr-13 17:33N 52°27' E 002°12'4715.4
2014-Apr-13 14:30N 51°49' E 002°55'1313.5
2014-Apr-13 13:33N 51°44' E 003°14'1513.4
2014-Apr-13 12:25N 51°31' E 003°26'910.8
2014-Apr-13 11:33N 51°26' E 003°39'1010.3
2014-Apr-13 10:33N 51°22' E 003°54'8 7.8
2014-Apr-13 09:33N 51°22' E 004°06'9 8.9
2014-Apr-13 08:34N 51°18' E 004°18'1 1.4
2014-Apr-13 07:33N 51°17' E 004°20'1 1.0
2014-Apr-13 06:31N 51°16' E 004°20'0 0.0
2014-Apr-13 05:31N 51°16' E 004°20'0 0.0
2014-Apr-13 04:34N 51°16' E 004°20'0 0.0
2014-Apr-13 03:27N 51°16' E 004°20'0 0.0
2014-Apr-13 02:30N 51°16' E 004°20'0 0.0
2014-Apr-13 01:33N 51°16' E 004°20'0 0.0
2014-Apr-13 00:30N 51°16' E 004°20'0 0.0
2014-Apr-12 23:30N 51°16' E 004°20'0 0.0
2014-Apr-12 22:33N 51°16' E 004°20'0 0.0
2014-Apr-12 21:33N 51°16' E 004°20'0 0.0
2014-Apr-12 20:33N 51°16' E 004°20'0 0.0
2014-Apr-12 19:33N 51°16' E 004°20'0 0.0
2014-Apr-12 18:33N 51°16' E 004°20'0 0.0
2014-Apr-12 17:32N 51°16' E 004°20'0 0.0
2014-Apr-12 16:29N 51°16' E 004°20'0 0.0
2014-Apr-12 15:29N 51°16' E 004°20'0 0.0
2014-Apr-12 14:32N 51°16' E 004°20'0 0.0
2014-Apr-12 13:32N 51°16' E 004°20'0 0.0
2014-Apr-12 12:29N 51°16' E 004°20'0 0.0
2014-Apr-12 11:32N 51°16' E 004°20'0 0.0
2014-Apr-12 10:34N 51°16' E 004°20'5 4.9
2014-Apr-12 09:34N 51°20' E 004°18'1 0.7
2014-Apr-12 08:34N 51°21' E 004°17'5 5.1
2014-Apr-12 07:33N 51°23' E 004°10'8 8.0
2014-Apr-12 06:33N 51°23' E 003°57'1010.1
2014-Apr-12 05:34N 51°26' E 003°41'1010.0
2014-Apr-12 04:34N 51°30' E 003°27'1312.7
2014-Apr-12 03:33N 51°42' E 003°17'4 4.1
2014-Apr-12 02:29N 51°46' E 003°19'0 0.0
2014-Apr-12 01:26N 51°46' E 003°19'0 0.0
2014-Apr-12 00:31N 51°46' E 003°19'0 0.0
2014-Apr-11 23:31N 51°46' E 003°19'0 0.0
2014-Apr-11 22:16N 51°46' E 003°19'0 0.1
2014-Apr-11 21:22N 51°46' E 003°19'0 0.0
2014-Apr-11 20:28N 51°46' E 003°19'0 0.0
2014-Apr-11 19:25N 51°46' E 003°19'0 0.0
2014-Apr-11 18:31N 51°46' E 003°19'0 0.0
2014-Apr-11 17:10N 51°46' E 003°19'0 0.0
2014-Apr-11 16:04N 51°46' E 003°19'0 0.0
2014-Apr-11 15:28N 51°46' E 003°19'0 0.1
2014-Apr-11 14:28N 51°46' E 003°19'0 0.0
2014-Apr-11 13:31N 51°46' E 003°19'0 0.0
2014-Apr-11 12:28N 51°46' E 003°19'0 0.0
2014-Apr-11 11:28N 51°46' E 003°19'0 0.0
2014-Apr-11 10:30N 51°46' E 003°19'0 0.0
2014-Apr-11 09:30N 51°46' E 003°19'0 0.1
2014-Apr-11 08:33N 51°46' E 003°19'0 0.0
2014-Apr-11 07:30N 51°46' E 003°19'0 0.0
2014-Apr-11 06:30N 51°46' E 003°19'0 0.0
2014-Apr-11 04:30N 51°46' E 003°19'0 0.0
2014-Apr-11 03:33N 51°46' E 003°19'0 0.0
2014-Apr-11 02:33N 51°46' E 003°19'0 0.1
2014-Apr-11 01:33N 51°46' E 003°19'0 0.0
2014-Apr-11 00:33N 51°46' E 003°19'0 0.0
2014-Apr-10 23:30N 51°46' E 003°19'0 0.0
2014-Apr-10 21:32N 51°46' E 003°19'0 0.1
2014-Apr-10 20:17N 51°46' E 003°19'0 0.1
2014-Apr-10 19:32N 51°46' E 003°19'0 0.0
2014-Apr-10 18:32N 51°46' E 003°19'0 0.0
2014-Apr-10 17:32N 51°46' E 003°19'0 0.0
2014-Apr-10 16:29N 51°46' E 003°19'0 0.0
2014-Apr-10 15:29N 51°46' E 003°19'0 0.1
2014-Apr-10 14:32N 51°46' E 003°19'0 0.0
2014-Apr-10 13:20N 51°46' E 003°19'0 0.0
2014-Apr-10 12:26N 51°46' E 003°19'0 0.0
2014-Apr-10 11:32N 51°46' E 003°19'0 0.0
2014-Apr-10 10:29N 51°46' E 003°19'0 0.0
2014-Apr-10 09:17N 51°46' E 003°19'0 0.0
2014-Apr-10 08:31N 51°46' E 003°19'0 0.1
2014-Apr-10 07:28N 51°46' E 003°19'0 0.1
2014-Apr-10 06:32N 51°46' E 003°19'0 0.0
2014-Apr-10 05:22N 51°46' E 003°19'0 0.0
2014-Apr-10 04:31N 51°46' E 003°19'0 0.1
2014-Apr-10 03:25N 51°46' E 003°19'  

Dump ship's entire track history

sailing weather and tide predictions

Coral Leaf — PHNI — position and weather